Time;durP1;ratioP1;P1;durP2;ratioP2;P2;SDS_P1;SDS_P2;PMS_P1;PMS_P2;Temp;Humidity;BMP_temperature;BMP_pressure;BME280_temperature;BME280_humidity;BME280_pressure;Samples;Min_cycle;Max_cycle;Signal;HPM_P1;HPM_P2
2021/01/27 00:00:47;;;;;;;12.63;8.43;;;;;;;-0.72;100.00;96616.59;5055438;28;20451;-44
2021/01/27 00:03:15;;;;;;;12.20;8.67;;;;;;;-0.70;100.00;96613.94;5011721;28;20417;-45
2021/01/27 00:05:45;;;;;;;11.93;7.72;;;;;;;-0.71;100.00;96607.91;5054069;28;20396;-46
2021/01/27 00:08:12;;;;;;;12.80;7.60;;;;;;;-0.63;100.00;96617.91;5030050;28;20884;-45
2021/01/27 00:10:39;;;;;;;11.00;7.10;;;;;;;-0.63;100.00;96605.78;5042747;28;20896;-48
2021/01/27 00:26:03;;;;;;;6.65;4.00;;;;;;;-0.50;98.59;96606.06;5038515;28;20434;-45
2021/01/27 00:28:30;;;;;;;7.20;3.95;;;;;;;-0.50;97.88;96587.91;5051064;28;20418;-47
2021/01/27 00:30:57;;;;;;;6.95;3.75;;;;;;;-0.53;97.42;96590.66;5044216;28;20419;-48
2021/01/27 00:33:24;;;;;;;6.65;3.97;;;;;;;-0.55;98.12;96597.66;5046510;28;20494;-46
2021/01/27 00:35:51;;;;;;;7.55;4.32;;;;;;;-0.52;98.25;96598.38;5059402;28;20411;-45
2021/01/27 00:38:20;;;;;;;5.20;3.55;;;;;;;-0.54;96.39;96588.97;5041247;28;20429;-49
2021/01/27 00:40:48;;;;;;;6.72;4.22;;;;;;;-0.54;96.73;96597.59;5045852;28;20413;-45
2021/01/27 00:43:16;;;;;;;7.93;4.68;;;;;;;-0.63;96.68;96592.84;5047404;28;21226;-46
2021/01/27 00:45:43;;;;;;;6.93;4.00;;;;;;;-0.62;95.96;96589.34;5049523;28;20417;-45
2021/01/27 00:48:11;;;;;;;7.30;4.28;;;;;;;-0.64;95.72;96586.00;5043003;28;20925;-45
2021/01/27 00:50:38;;;;;;;6.50;4.28;;;;;;;-0.79;97.00;96594.47;5042815;28;20911;-46
2021/01/27 00:53:06;;;;;;;7.80;3.83;;;;;;;-0.73;95.43;96579.47;5052302;28;20424;-47
2021/01/27 00:55:41;;;;;;;7.30;4.13;;;;;;;-0.70;95.01;96588.03;5037874;28;20411;-47
2021/01/27 00:58:08;;;;;;;5.68;4.00;;;;;;;-0.72;94.83;96590.72;5051449;28;20424;-44
2021/01/27 01:00:38;;;;;;;6.18;4.05;;;;;;;-0.78;94.90;96588.41;5042084;28;20854;-45
2021/01/27 01:03:12;;;;;;;7.68;4.10;;;;;;;-0.83;93.93;96591.19;5041872;28;20412;-47
2021/01/27 01:05:40;;;;;;;7.95;3.92;;;;;;;-0.83;94.17;96590.34;5044095;28;20464;-45
2021/01/27 01:08:09;;;;;;;6.05;4.07;;;;;;;-0.98;94.91;96595.34;5047727;28;20408;-47
2021/01/27 01:10:39;;;;;;;7.60;4.07;;;;;;;-0.92;95.31;96591.63;5058047;28;20411;-44
2021/01/27 01:13:08;;;;;;;7.57;3.90;;;;;;;-0.96;94.88;96597.88;5047439;28;20412;-44
2021/01/27 01:15:35;;;;;;;8.77;4.40;;;;;;;-0.86;94.47;96591.34;5047784;28;20431;-46
2021/01/27 01:18:03;;;;;;;7.05;4.47;;;;;;;-0.98;94.48;96591.91;5031094;28;20809;-44
2021/01/27 01:20:30;;;;;;;6.45;4.00;;;;;;;-1.12;94.85;96589.97;5046545;28;20432;-45
2021/01/27 01:22:58;;;;;;;7.90;4.20;;;;;;;-1.16;95.18;96591.00;5044163;28;20415;-44
2021/01/27 01:25:27;;;;;;;5.88;4.00;;;;;;;-1.12;94.39;96586.53;5036458;28;20399;-46
2021/01/27 01:27:54;;;;;;;7.93;4.10;;;;;;;-1.15;94.57;96591.84;5052917;28;20535;-46
2021/01/27 01:30:23;;;;;;;7.57;4.40;;;;;;;-1.21;95.79;96591.19;5043095;28;20412;-46
2021/01/27 01:32:50;;;;;;;8.18;4.30;;;;;;;-1.17;95.44;96583.31;5039282;28;20423;-44
2021/01/27 01:35:19;;;;;;;8.55;4.47;;;;;;;-1.40;95.71;96587.78;5047232;28;20416;-45
2021/01/27 01:37:47;;;;;;;6.72;4.03;;;;;;;-1.46;96.89;96588.06;5053586;28;20408;-45
2021/01/27 01:40:16;;;;;;;7.90;4.30;;;;;;;-1.48;95.18;96575.19;5051572;28;20411;-50
2021/01/27 01:42:43;;;;;;;8.05;4.30;;;;;;;-1.65;95.08;96582.88;5052038;28;20414;-44
2021/01/27 01:45:24;;;;;;;6.72;4.22;;;;;;;-1.75;96.56;96573.81;5042907;28;20420;-45
2021/01/27 01:47:53;;;;;;;6.35;3.88;;;;;;;-1.61;95.77;96573.22;5036994;28;20488;-46
2021/01/27 01:50:21;;;;;;;6.40;3.80;;;;;;;-1.64;95.15;96571.59;5046986;28;20446;-48
2021/01/27 01:52:49;;;;;;;6.45;3.70;;;;;;;-1.69;95.79;96560.59;5039370;28;20923;-44
2021/01/27 01:55:16;;;;;;;6.45;3.75;;;;;;;-1.86;95.27;96555.34;5043742;28;20448;-45
2021/01/27 01:57:45;;;;;;;8.02;4.00;;;;;;;-1.83;95.64;96552.63;5043385;28;20424;-47
2021/01/27 02:00:14;;;;;;;7.22;3.60;;;;;;;-1.88;95.59;96546.84;5040268;28;20837;-44
2021/01/27 02:02:42;;;;;;;7.35;4.10;;;;;;;-1.99;94.94;96547.31;5047286;28;20983;-44
2021/01/27 02:05:13;;;;;;;7.10;3.88;;;;;;;-2.04;95.28;96544.91;5041091;28;20440;-43
2021/01/27 02:07:41;;;;;;;6.00;3.53;;;;;;;-2.20;94.73;96547.31;5047857;28;20436;-43
2021/01/27 02:10:09;;;;;;;7.55;3.92;;;;;;;-2.33;95.51;96547.88;5044745;28;20413;-49
2021/01/27 02:12:52;;;;;;;7.88;4.22;;;;;;;-2.15;94.85;96539.34;5050028;28;20415;-44
2021/01/27 02:16:03;;;;;;;6.85;4.03;;;;;;;-2.10;95.37;96549.47;5050044;28;20809;-45
2021/01/27 02:18:54;;;;;;;7.00;3.60;;;;;;;-1.97;94.74;96540.31;5017091;28;20481;-45
2021/01/27 02:21:54;;;;;;;7.78;4.30;;;;;;;-2.03;94.42;96538.84;5031676;28;20413;-45
2021/01/27 02:24:53;;;;;;;7.07;3.90;;;;;;;-2.05;95.59;96537.22;5043285;28;20417;-46
2021/01/27 02:27:23;;;;;;;6.47;3.77;;;;;;;-2.20;94.79;96546.47;5044574;28;20617;-43
2021/01/27 02:30:15;;;;;;;7.13;4.20;;;;;;;-2.26;95.35;96542.41;5054801;28;20403;-50
2021/01/27 02:33:20;;;;;;;7.80;4.40;;;;;;;-2.22;95.88;96540.53;5042961;28;20423;-43
2021/01/27 02:35:51;;;;;;;8.15;4.10;;;;;;;-2.17;95.31;96536.84;5022073;28;20415;-48
2021/01/27 02:38:22;;;;;;;7.97;4.15;;;;;;;-2.11;95.19;96537.47;5042786;28;20409;-48
2021/01/27 02:40:52;;;;;;;8.82;4.20;;;;;;;-2.10;94.58;96534.81;5043340;28;20410;-47
2021/01/27 02:43:24;;;;;;;6.30;3.90;;;;;;;-2.11;95.20;96533.16;5037069;28;20405;-48
2021/01/27 02:45:57;;;;;;;6.10;3.90;;;;;;;-2.10;95.43;96529.66;5043300;28;20428;-46
2021/01/27 02:48:31;;;;;;;6.30;4.03;;;;;;;-2.17;95.93;96534.28;5045235;28;20433;-42
2021/01/27 02:51:03;;;;;;;7.95;4.25;;;;;;;-2.06;96.37;96525.22;5040996;28;20432;-46
2021/01/27 02:53:33;;;;;;;9.00;4.18;;;;;;;-2.10;96.13;96529.66;5050379;28;20400;-46
2021/01/27 02:56:03;;;;;;;8.35;4.05;;;;;;;-1.94;95.99;96516.91;5036520;28;20881;-44
2021/01/27 02:58:32;;;;;;;8.05;4.32;;;;;;;-1.93;96.74;96513.41;5042246;28;20409;-44
2021/01/27 03:01:03;;;;;;;7.22;4.35;;;;;;;-1.78;96.22;96507.59;5040187;28;20908;-47
2021/01/27 03:03:33;;;;;;;8.40;4.18;;;;;;;-1.64;95.11;96511.31;5057554;28;20416;-47
2021/01/27 03:06:03;;;;;;;7.35;4.07;;;;;;;-1.72;94.70;96511.63;5038917;28;20484;-46
2021/01/27 03:08:35;;;;;;;8.40;4.05;;;;;;;-1.76;95.47;96520.44;5048569;28;20417;-45
2021/01/27 03:11:05;;;;;;;8.32;4.40;;;;;;;-1.73;94.38;96520.28;5040943;28;21389;-46
2021/01/27 03:13:34;;;;;;;7.70;4.20;;;;;;;-1.78;94.79;96517.94;5047810;28;20492;-47
2021/01/27 03:16:07;;;;;;;7.50;4.20;;;;;;;-1.75;95.65;96511.78;5045488;28;20407;-46
2021/01/27 03:18:48;;;;;;;8.65;4.00;;;;;;;-1.58;94.14;96508.41;5053040;28;20886;-45
2021/01/27 03:21:19;;;;;;;7.77;3.93;;;;;;;-1.67;94.06;96507.09;5048595;28;20475;-46
2021/01/27 03:23:50;;;;;;;7.28;4.22;;;;;;;-1.62;93.76;96512.91;5055790;28;20469;-44
2021/01/27 03:26:20;;;;;;;7.22;4.00;;;;;;;-1.62;93.45;96509.47;5045964;28;21003;-48
2021/01/27 03:28:53;;;;;;;7.47;4.18;;;;;;;-1.56;93.34;96510.03;5039885;28;20412;-45
2021/01/27 03:31:20;;;;;;;7.07;4.07;;;;;;;-1.74;93.50;96508.28;5038859;28;20393;-48
2021/01/27 03:33:50;;;;;;;5.90;3.97;;;;;;;-1.79;93.26;96505.06;5052942;28;20464;-44
2021/01/27 03:36:19;;;;;;;7.13;4.45;;;;;;;-1.99;94.34;96503.38;5044114;28;20515;-47
2021/01/27 03:38:49;;;;;;;6.00;3.77;;;;;;;-1.92;92.69;96495.28;5037697;22;20447;-52
2021/01/27 03:41:18;;;;;;;7.53;3.85;;;;;;;-2.00;92.84;96497.34;4998092;28;20454;-46
2021/01/27 03:43:53;;;;;;;7.82;3.88;;;;;;;-2.29;93.42;96506.38;4996182;28;20505;-46
2021/01/27 03:46:23;;;;;;;7.63;4.03;;;;;;;-2.41;94.53;96496.53;4997683;28;20959;-48
2021/01/27 03:48:54;;;;;;;5.32;4.07;;;;;;;-2.52;94.89;96514.22;5009628;28;20419;-47
2021/01/27 03:51:23;;;;;;;6.67;4.40;;;;;;;-2.66;95.25;96507.91;5001806;28;20456;-48
2021/01/27 03:53:51;;;;;;;8.73;4.13;;;;;;;-2.66;96.00;96507.91;5006247;28;20424;-48
2021/01/27 03:56:22;;;;;;;6.45;4.03;;;;;;;-2.77;96.78;96501.50;5004859;28;20425;-51
2021/01/27 03:58:49;;;;;;;8.02;4.40;;;;;;;-2.92;97.26;96511.53;5002258;28;20428;-47
2021/01/27 04:01:19;;;;;;;9.07;4.70;;;;;;;-2.85;98.96;96511.31;4999295;28;20421;-50
2021/01/27 04:03:46;;;;;;;8.02;4.63;;;;;;;-3.01;97.93;96511.06;5007296;28;20412;-49
2021/01/27 04:06:14;;;;;;;7.28;4.57;;;;;;;-2.92;99.84;96511.53;4996073;28;20497;-46
2021/01/27 04:08:41;;;;;;;8.25;4.63;;;;;;;-2.90;98.36;96519.22;4996853;28;20475;-52
2021/01/27 04:11:09;;;;;;;6.40;4.32;;;;;;;-3.04;98.41;96512.03;5006939;28;20421;-51
2021/01/27 04:13:36;;;;;;;8.07;4.63;;;;;;;-3.33;98.10;96513.16;5005391;28;20428;-47
2021/01/27 04:16:04;;;;;;;11.48;4.85;;;;;;;-3.58;99.09;96514.09;5004054;28;20430;-47
2021/01/27 04:18:32;;;;;;;8.68;5.07;;;;;;;-3.69;100.00;96515.38;5006567;28;20424;-47
2021/01/27 04:20:58;;;;;;;8.85;4.88;;;;;;;-3.82;100.00;96508.13;5005460;28;20765;-49
2021/01/27 04:23:25;;;;;;;8.15;5.25;;;;;;;-3.85;100.00;96505.66;4996165;28;20417;-50
2021/01/27 04:25:53;;;;;;;11.55;5.90;;;;;;;-3.89;100.00;96500.66;5005604;28;20459;-48
2021/01/27 04:28:20;;;;;;;10.25;5.82;;;;;;;-3.97;100.00;96508.66;5004096;28;20500;-50
2021/01/27 04:30:47;;;;;;;11.40;6.27;;;;;;;-4.09;100.00;96509.94;5004775;28;21025;-49
2021/01/27 04:33:32;;;;;;;11.80;5.43;;;;;;;-4.14;100.00;96506.69;5003232;28;20961;-50
2021/01/27 04:35:59;;;;;;;10.77;5.43;;;;;;;-3.95;100.00;96506.88;5000004;28;20431;-51
2021/01/27 04:38:26;;;;;;;9.95;5.78;;;;;;;-3.82;100.00;96504.69;4999478;28;20433;-53
2021/01/27 04:40:55;;;;;;;9.50;6.18;;;;;;;-3.86;100.00;96497.97;5003818;28;20795;-52
2021/01/27 04:43:26;;;;;;;10.77;5.85;;;;;;;-4.06;100.00;96496.97;5001845;28;20437;-53
2021/01/27 04:45:59;;;;;;;12.15;6.03;;;;;;;-3.99;100.00;96501.88;5003155;28;20468;-54
2021/01/27 04:48:30;;;;;;;13.45;6.30;;;;;;;-3.98;100.00;96495.84;5001187;28;20423;-48
2021/01/27 04:51:00;;;;;;;11.80;6.38;;;;;;;-4.16;100.00;96495.63;5005278;28;20992;-51
2021/01/27 04:53:40;;;;;;;10.00;5.78;;;;;;;-4.17;100.00;96490.50;4995160;28;20559;-53
2021/01/27 04:56:19;;;;;;;13.02;6.80;;;;;;;-4.32;100.00;96490.16;5002442;28;20426;-54
2021/01/27 04:58:51;;;;;;;13.70;7.20;;;;;;;-4.28;100.00;96493.47;4999134;28;20432;-48
2021/01/27 05:01:41;;;;;;;17.48;8.70;;;;;;;-4.35;100.00;96489.41;5000282;28;20436;-51
2021/01/27 05:04:24;;;;;;;19.35;8.68;;;;;;;-4.53;100.00;96489.16;5004177;28;20921;-51
2021/01/27 05:06:56;;;;;;;18.35;8.43;;;;;;;-4.68;100.00;96484.56;5006810;28;20420;-51
2021/01/27 05:09:42;;;;;;;13.23;7.13;;;;;;;-4.69;100.00;96476.88;5003193;28;20428;-51
2021/01/27 05:12:10;;;;;;;17.88;8.10;;;;;;;-4.70;100.00;96477.78;5005378;28;20432;-50
2021/01/27 05:14:38;;;;;;;19.67;9.75;;;;;;;-4.82;100.00;96467.00;5003058;28;20433;-49
2021/01/27 05:17:09;;;;;;;18.02;9.45;;;;;;;-4.86;100.00;96472.28;5002227;28;20426;-48
2021/01/27 05:19:37;;;;;;;13.50;8.15;;;;;;;-5.04;100.00;96474.56;5000982;28;21088;-52
2021/01/27 05:22:06;;;;;;;16.52;8.95;;;;;;;-5.49;100.00;96471.72;5000841;28;20422;-48
2021/01/27 05:24:34;;;;;;;12.00;7.55;;;;;;;-5.80;100.00;96476.94;4999563;28;20507;-51
2021/01/27 05:27:07;;;;;;;13.68;7.63;;;;;;;-5.77;100.00;96477.69;5010524;28;20432;-53
2021/01/27 05:29:37;;;;;;;17.02;7.72;;;;;;;-5.74;100.00;96480.19;4997137;28;20419;-48
2021/01/27 05:32:07;;;;;;;15.35;7.72;;;;;;;-5.61;100.00;96469.53;5003690;28;20445;-48
2021/01/27 05:34:36;;;;;;;11.98;7.53;;;;;;;-5.53;100.00;96465.00;5004134;28;20760;-50
2021/01/27 05:37:05;;;;;;;12.75;7.63;;;;;;;-5.45;100.00;96460.47;5000780;28;20503;-50
2021/01/27 05:39:36;;;;;;;12.68;7.50;;;;;;;-5.49;100.00;96453.75;5000330;28;20417;-50
2021/01/27 05:42:05;;;;;;;14.40;7.60;;;;;;;-5.45;100.00;96452.75;5001598;28;20944;-53
2021/01/27 05:44:33;;;;;;;11.48;6.82;;;;;;;-5.32;100.00;96450.66;5007323;28;20536;-50
2021/01/27 05:47:25;;;;;;;11.93;6.40;;;;;;;-5.25;100.00;96441.84;4998935;28;20828;-49
2021/01/27 05:49:53;;;;;;;14.45;7.75;;;;;;;-5.25;100.00;96437.53;5005487;28;20417;-57
2021/01/27 05:52:23;;;;;;;14.73;7.70;;;;;;;-5.20;100.00;96437.38;5002079;28;20888;-50
2021/01/27 05:54:51;;;;;;;15.82;7.85;;;;;;;-5.17;100.00;96432.16;5004578;28;20917;-54
2021/01/27 05:57:21;;;;;;;14.80;7.57;;;;;;;-5.14;100.00;96423.50;5003293;28;20436;-51
2021/01/27 05:59:49;;;;;;;12.35;7.95;;;;;;;-5.18;100.00;96421.94;4999780;28;20488;-53
2021/01/27 06:02:16;;;;;;;13.90;6.90;;;;;;;-5.23;100.00;96427.25;4998903;28;20448;-50
2021/01/27 06:04:56;;;;;;;14.67;7.97;;;;;;;-5.30;100.00;96428.28;5004179;28;20485;-57
2021/01/27 06:07:25;;;;;;;13.27;7.05;;;;;;;-5.32;100.00;96430.94;4999700;28;20405;-49
2021/01/27 06:09:53;;;;;;;13.70;6.30;;;;;;;-5.41;100.00;96433.78;5007761;28;20429;-55
2021/01/27 06:12:28;;;;;;;10.50;6.35;;;;;;;-5.33;100.00;96423.28;4999729;28;20417;-48
2021/01/27 06:15:29;;;;;;;11.63;5.80;;;;;;;-5.17;100.00;96427.00;5007510;28;20440;-48
2021/01/27 06:17:56;;;;;;;9.18;5.60;;;;;;;-5.16;100.00;96418.44;5000034;28;20412;-51
2021/01/27 06:20:32;;;;;;;12.88;6.43;;;;;;;-5.23;100.00;96419.53;5003737;28;20417;-48
2021/01/27 06:23:24;;;;;;;15.32;7.90;;;;;;;-5.15;100.00;96420.09;4995398;28;20407;-53
2021/01/27 06:26:14;;;;;;;17.70;8.77;;;;;;;-5.10;100.00;96420.78;4999256;28;20984;-48
2021/01/27 06:28:54;;;;;;;20.13;10.20;;;;;;;-4.96;100.00;96420.31;5000933;28;20423;-49
2021/01/27 06:31:37;;;;;;;26.00;11.18;;;;;;;-4.84;100.00;96426.78;4996427;28;20401;-50
2021/01/27 06:34:35;;;;;;;19.42;8.85;;;;;;;-4.71;100.00;96415.19;5001794;28;20432;-50
2021/01/27 06:37:13;;;;;;;29.13;16.35;;;;;;;-4.72;100.00;96416.06;5002084;28;20483;-50
2021/01/27 06:40:06;;;;;;;30.05;15.65;;;;;;;-4.64;100.00;96414.09;5001563;28;20420;-52
2021/01/27 06:42:50;;;;;;;17.70;10.50;;;;;;;-4.54;100.00;96410.31;4997735;28;20464;-49
2021/01/27 06:45:23;;;;;;;13.52;8.52;;;;;;;-4.50;100.00;96412.78;4987505;28;20410;-51
2021/01/27 06:48:11;;;;;;;14.20;7.60;;;;;;;-4.60;100.00;96410.50;4997465;28;20456;-48
2021/01/27 06:50:59;;;;;;;12.82;7.32;;;;;;;-4.68;100.00;96406.50;5005147;28;20416;-54
2021/01/27 06:53:46;;;;;;;15.57;6.95;;;;;;;-4.86;100.00;96410.56;4993103;28;20416;-53
2021/01/27 06:56:33;;;;;;;13.40;7.27;;;;;;;-4.74;100.00;96406.75;4999489;28;20428;-48
2021/01/27 06:59:39;;;;;;;13.33;7.10;;;;;;;-4.63;100.00;96405.47;4998514;28;20469;-53
2021/01/27 07:02:28;;;;;;;11.10;6.40;;;;;;;-4.44;100.00;96402.22;4969279;28;20989;-48
2021/01/27 07:05:08;;;;;;;17.05;10.43;;;;;;;-4.38;100.00;96407.16;4998831;28;20432;-53
2021/01/27 07:07:56;;;;;;;14.48;9.82;;;;;;;-4.24;100.00;96406.66;5004665;28;20425;-54
2021/01/27 07:10:29;;;;;;;16.08;8.38;;;;;;;-4.04;100.00;96399.03;5000526;28;20432;-52
2021/01/27 07:13:05;;;;;;;14.73;6.72;;;;;;;-3.89;99.81;96387.31;5004323;28;20476;-51
2021/01/27 07:15:45;;;;;;;18.85;7.10;;;;;;;-3.75;98.44;96390.22;4996183;28;20782;-48
2021/01/27 07:18:35;;;;;;;10.65;5.63;;;;;;;-3.60;96.62;96381.03;4994330;28;20440;-52
2021/01/27 07:21:04;;;;;;;17.00;7.40;;;;;;;-3.42;96.05;96382.88;5001653;28;20428;-58
2021/01/27 07:23:40;;;;;;;20.80;8.55;;;;;;;-3.28;93.79;96384.91;5001386;28;20407;-51
2021/01/27 07:26:12;;;;;;;19.35;8.07;;;;;;;-3.05;92.98;96385.72;5002350;28;20942;-53
2021/01/27 07:28:48;;;;;;;14.55;6.45;;;;;;;-2.83;91.36;96380.47;5018874;28;20414;-53
2021/01/27 07:31:17;;;;;;;9.87;5.10;;;;;;;-2.79;89.87;96380.25;5015095;28;21309;-49
2021/01/27 07:33:50;;;;;;;7.20;4.15;;;;;;;-2.76;88.49;96372.41;5018214;28;20919;-52
2021/01/27 07:36:33;;;;;;;6.50;3.77;;;;;;;-2.71;88.81;96367.06;5015157;28;20515;-50
2021/01/27 07:39:01;;;;;;;;;;;;;;;-2.67;86.40;96364.28;5014270;28;20432;-48
2021/01/27 07:41:39;;;;;;;;;;;;;;;-2.34;86.10;96362.84;5015041;28;19921;-54
2021/01/27 07:44:06;;;;;;;;;;;;;;;-2.27;84.49;96354.78;5020689;28;19925;-50
2021/01/27 07:46:36;;;;;;;;;;;;;;;-2.23;83.12;96352.88;5009932;28;20029;-48
2021/01/27 07:49:04;;;;;;;;;;;;;;;-2.19;81.51;96355.25;5021318;28;19996;-52
2021/01/27 07:51:32;;;;;;;;;;;;;;;-1.84;81.50;96349.38;5020351;28;19925;-50
2021/01/27 07:54:00;;;;;;;;;;;;;;;-1.68;80.50;96348.59;5020360;28;19920;-50
2021/01/27 07:56:27;;;;;;;;;;;;;;;-1.61;80.34;96353.47;5011069;28;20326;-50
2021/01/27 07:58:57;;;;;;;;;;;;;;;-1.56;79.70;96343.72;5020796;28;19922;-50
2021/01/27 08:01:25;;;;;;;;;;;;;;;-1.56;78.27;96346.31;5018759;28;19928;-49
2021/01/27 08:03:54;;;;;;;;;;;;;;;-1.69;78.82;96356.38;5014854;28;19929;-52
2021/01/27 08:06:21;;;;;;;;;;;;;;;-1.88;78.50;96360.78;5015157;28;19925;-50
2021/01/27 08:08:49;;;;;;;;;;;;;;;-1.93;76.97;96358.38;5011892;28;19927;-51
2021/01/27 08:11:16;;;;;;;;;;;;;;;-1.99;77.87;96363.84;5018171;28;19921;-50
2021/01/27 08:13:44;;;;;;;;;;;;;;;-1.67;76.43;96350.25;5011827;28;19922;-55
2021/01/27 08:16:32;;;;;;;;;;;;;;;-1.53;76.73;96343.59;5026213;28;20020;-49
2021/01/27 08:19:06;;;;;;;;;;;;;;;-1.74;76.98;96338.53;5013561;28;20379;-49
2021/01/27 08:21:38;;;;;;;;;;;;;;;-1.78;77.64;96342.16;5022651;28;19944;-49
2021/01/27 08:24:05;;;;;;;;;;;;;;;-1.35;76.27;96340.09;5025684;28;19936;-50
2021/01/27 08:26:51;;;;;;;;;;;;;;;-1.12;75.78;96340.72;5022185;28;19929;-47
2021/01/27 08:29:26;;;;;;;;;;;;;;;-1.02;75.70;96357.47;5010814;28;20303;-48
2021/01/27 08:32:08;;;;;;;;;;;;;;;-0.82;74.55;96357.31;5023201;28;19928;-46
2021/01/27 08:34:45;;;;;;;;;;;;;;;-0.45;72.76;96368.34;5011163;28;20383;-51
2021/01/27 08:37:13;;;;;;;;;;;;;;;-0.08;71.66;96356.03;5017130;28;19952;-49
2021/01/27 08:39:41;;;;;;;;;;;;;;;-0.29;69.62;96353.69;5012764;28;19925;-50
2021/01/27 08:42:19;;;;;;;;;;;;;;;-0.16;69.59;96355.63;5025894;28;20480;-48
2021/01/27 08:44:45;;;;;;;;;;;;;;;0.16;69.55;96356.47;5013214;28;19929;-48
2021/01/27 08:47:19;;;;;;;;;;;;;;;0.28;68.32;96355.81;5018976;28;19921;-51
2021/01/27 08:49:52;;;;;;;;;;;;;;;0.78;67.59;96361.69;5013624;28;20307;-45
2021/01/27 08:52:37;;;;;;;;;;;;;;;1.34;66.87;96352.34;5020383;28;20304;-48
2021/01/27 08:55:25;;;;;;;;;;;;;;;1.43;63.47;96362.22;5010703;28;19929;-50
2021/01/27 08:58:07;;;;;;;;;;;;;;;1.57;63.88;96344.03;5021878;28;19925;-47
2021/01/27 09:00:44;;;;;;;;;;;;;;;1.58;63.94;96350.91;5009815;28;19922;-50
2021/01/27 09:03:26;;;;;;;;;;;;;;;1.05;65.26;96351.47;5010513;28;19921;-46
2021/01/27 09:05:53;;;;;;;;;;;;;;;1.02;65.45;96354.25;5012308;28;20355;-52
2021/01/27 09:08:26;;;;;;;;;;;;;;;1.59;64.10;96343.97;5020567;28;19920;-46
2021/01/27 09:10:54;;;;;;;;;;;;;;;1.84;62.53;96345.88;5013211;28;19921;-54
2021/01/27 09:13:21;;;;;;;;;;;;;;;1.88;62.39;96347.38;5019756;28;19952;-52
2021/01/27 09:15:51;;;;;;;;;;;;;;;1.73;63.14;96343.94;5018071;28;19921;-51
2021/01/27 09:18:17;;;;;;;;;;;;;;;1.03;63.43;96348.97;5017876;28;19929;-53
2021/01/27 09:20:45;;;;;;;;;;;;;;;1.46;62.40;96343.03;5019160;28;20002;-51
2021/01/27 09:23:12;;;;;;;;;;;;;;;1.95;62.02;96346.06;5019979;28;19980;-53
2021/01/27 09:25:44;;;;;;;;;;;;;;;2.19;60.86;96355.88;5014185;28;19921;-49
2021/01/27 09:28:11;;;;;;;;;;;;;;;2.24;60.50;96356.44;5025383;28;19993;-51
2021/01/27 09:30:38;;;;;;;;;;;;;;;2.27;60.46;96340.59;5011682;28;19925;-53
2021/01/27 09:33:09;;;;;;;;;;;;;;;2.72;58.32;96339.47;5017536;28;20296;-50
2021/01/27 09:35:36;;;;;;;;;;;;;;;1.93;60.00;96342.75;5015776;28;19921;-48
2021/01/27 09:38:05;;;;;;;;;;;;;;;1.89;60.21;96346.44;5016431;28;19922;-52
2021/01/27 09:40:34;;;;;;;;;;;;;;;2.14;59.63;96336.19;5017400;28;19975;-49
2021/01/27 09:43:05;;;;;;;;;;;;;;;2.44;60.08;96342.16;5014620;28;20024;-51
2021/01/27 09:45:32;;;;;;;;;;;;;;;2.96;58.48;96342.25;5014825;28;19929;-48
2021/01/27 09:48:00;;;;;;;;;;;;;;;3.19;58.40;96338.09;5011846;28;19928;-53
2021/01/27 09:50:27;;;;;;;;;;;;;;;3.21;57.70;96335.41;5016350;28;19925;-50
2021/01/27 09:52:54;;;;;;;;;;;;;;;3.05;57.73;96339.00;5018664;28;19921;-49
2021/01/27 09:55:21;;;;;;;;;;;;;;;2.35;58.12;96334.00;5015186;28;20485;-49
2021/01/27 09:57:50;;;;;;;;;;;;;;;2.08;59.38;96333.97;5014017;28;19928;-51
2021/01/27 10:00:25;;;;;;;;;;;;;;;2.46;59.38;96337.69;5020767;28;19924;-50
2021/01/27 10:02:52;;;;;;;;;;;;;;;2.40;58.99;96331.09;5010920;28;19925;-48
2021/01/27 10:05:31;;;;;;;;;;;;;;;2.35;59.64;96322.75;5017054;28;19964;-53
2021/01/27 10:07:58;;;;;;;;;;;;;;;2.56;58.79;96316.19;5010859;28;19948;-51
2021/01/27 10:10:25;;;;;;;;;;;;;;;2.56;58.83;96303.16;5018396;28;19921;-52
2021/01/27 10:13:12;;;;;;;;;;;;;;;2.31;60.30;96300.47;5009265;28;19937;-55
2021/01/27 10:15:39;;;;;;;;;;;;;;;2.79;59.56;96300.84;5019345;28;19937;-54
2021/01/27 10:18:06;;;;;;;;;;;;;;;3.48;57.89;96302.25;5010141;28;19984;-49
2021/01/27 10:20:36;;;;;;;;;;;;;;;4.11;55.69;96303.09;5014377;28;19924;-54
2021/01/27 10:23:04;;;;;;;;;;;;;;;4.64;54.61;96298.38;5010558;28;20358;-52
2021/01/27 10:25:35;;;;;;;;;;;;;;;5.08;51.60;96294.25;5016950;28;19964;-47
2021/01/27 10:28:18;;;;;;;;;;;;;;;5.31;51.68;96286.47;5014128;28;19929;-51
2021/01/27 10:30:47;;;;;;;;;;;;;;;4.67;52.48;96289.50;5018178;28;19928;-51
2021/01/27 10:33:35;;;;;;;;;;;;;;;4.45;52.75;96296.28;5013958;28;20012;-48
2021/01/27 10:36:17;;;;;;;;;;;;;;;4.64;51.40;96292.31;4999919;28;19985;-48
2021/01/27 10:38:44;;;;;;;;;;;;;;;6.29;50.20;96278.84;5008269;28;19944;-58
2021/01/27 10:41:20;;;;;;;9.23;2.95;;;;;;;5.89;48.95;96284.63;5022665;28;20436;-52
2021/01/27 10:43:48;;;;;;;5.70;2.90;;;;;;;5.68;49.53;96284.50;5007561;28;20874;-48
2021/01/27 10:46:31;;;;;;;5.43;3.03;;;;;;;4.48;53.11;96287.41;5015555;28;20436;-51
2021/01/27 10:48:59;;;;;;;6.10;3.20;;;;;;;4.79;53.54;96290.38;5009317;28;20422;-50
2021/01/27 10:51:26;;;;;;;6.15;2.75;;;;;;;5.67;51.60;96277.59;5015101;28;20950;-47
2021/01/27 10:57:10;;;;;;;5.05;2.60;;;;;;;6.23;48.43;96264.50;4987663;28;20430;-51
2021/01/27 10:59:41;;;;;;;4.82;2.70;;;;;;;7.09;47.48;96270.59;5003519;28;20436;-52
2021/01/27 11:02:18;;;;;;;8.47;4.60;;;;;;;7.18;46.94;96269.78;5003505;28;20414;-51
2021/01/27 11:04:50;;;;;;;6.15;2.70;;;;;;;6.85;46.51;96279.50;5000890;28;20976;-49
2021/01/27 11:07:16;;;;;;;5.70;3.05;;;;;;;5.97;48.20;96281.41;5016121;28;20522;-47
2021/01/27 11:09:45;;;;;;;5.10;3.08;;;;;;;5.83;48.62;96285.91;5016212;28;20730;-49
2021/01/27 11:12:12;;;;;;;6.13;3.72;;;;;;;5.16;51.66;96285.84;5006803;28;20592;-53
2021/01/27 11:14:39;;;;;;;8.00;3.75;;;;;;;4.48;52.65;96297.84;5006094;28;20856;-51
2021/01/27 11:17:07;;;;;;;7.20;4.10;;;;;;;4.15;56.72;96301.09;5015136;28;20426;-52
2021/01/27 11:19:35;;;;;;;10.03;4.27;;;;;;;4.13;56.96;96292.53;5014839;28;20478;-51
2021/01/27 11:22:02;;;;;;;8.98;4.47;;;;;;;3.39;58.06;96292.44;5013380;28;20465;-49
2021/01/27 11:24:29;;;;;;;10.32;4.97;;;;;;;3.56;58.27;96284.31;5020521;28;20422;-53
2021/01/27 11:26:56;;;;;;;11.33;4.90;;;;;;;3.42;59.15;96289.63;5020642;28;20419;-51
2021/01/27 11:29:24;;;;;;;7.75;4.90;;;;;;;3.64;57.14;96270.72;5009158;28;20452;-52
2021/01/27 11:31:50;;;;;;;8.60;4.70;;;;;;;4.10;57.20;96269.28;5007659;28;20440;-47
2021/01/27 11:34:18;;;;;;;7.05;4.60;;;;;;;4.48;57.00;96269.13;5015433;28;20553;-52
2021/01/27 11:36:46;;;;;;;8.65;4.72;;;;;;;4.75;54.51;96266.28;5009297;28;21007;-50
2021/01/27 11:39:13;;;;;;;9.93;5.20;;;;;;;5.20;53.79;96269.81;5012216;28;20413;-49
2021/01/27 11:41:40;;;;;;;8.13;5.10;;;;;;;4.64;54.33;96266.22;5008949;28;20428;-53
2021/01/27 11:44:09;;;;;;;7.43;4.35;;;;;;;4.47;54.53;96257.84;5011497;28;20415;-55
2021/01/27 11:46:36;;;;;;;8.63;4.45;;;;;;;4.28;54.31;96262.75;5005794;28;20413;-47
2021/01/27 11:49:03;;;;;;;7.10;4.30;;;;;;;4.39;53.90;96244.50;5010529;28;20865;-49
2021/01/27 11:51:31;;;;;;;9.18;4.20;;;;;;;4.86;53.66;96245.41;5012698;28;20512;-48
2021/01/27 11:53:59;;;;;;;5.60;3.67;;;;;;;4.88;53.02;96242.66;5009154;28;20405;-52
2021/01/27 11:56:26;;;;;;;6.78;3.50;;;;;;;4.03;53.88;96238.41;5011804;28;21123;-46
2021/01/27 11:58:53;;;;;;;5.10;2.80;;;;;;;4.21;52.90;96235.41;5015298;28;20415;-49
2021/01/27 12:01:20;;;;;;;7.63;3.05;;;;;;;4.13;54.42;96235.13;5009376;28;20828;-48
2021/01/27 12:03:48;;;;;;;4.38;3.10;;;;;;;4.32;54.62;96232.84;5016636;28;20423;-48
2021/01/27 12:06:15;;;;;;;5.40;2.97;;;;;;;3.86;54.63;96236.16;5003192;28;20441;-49
2021/01/27 12:08:42;;;;;;;5.90;2.83;;;;;;;4.05;55.21;96226.06;5014507;28;20442;-54
2021/01/27 12:11:10;;;;;;;4.88;2.83;;;;;;;4.25;54.58;96229.03;5016687;28;20416;-51
2021/01/27 12:13:38;;;;;;;5.20;2.93;;;;;;;3.89;55.96;96230.75;5009162;28;20495;-47
2021/01/27 12:16:05;;;;;;;5.10;2.95;;;;;;;3.96;54.13;96220.69;5014817;28;20431;-50
2021/01/27 12:18:32;;;;;;;4.85;2.50;;;;;;;3.64;54.91;96225.56;5012631;28;20429;-49
2021/01/27 12:20:59;;;;;;;4.45;2.30;;;;;;;3.35;56.02;96217.19;5016924;28;20838;-50
2021/01/27 12:23:27;;;;;;;5.82;2.47;;;;;;;3.74;55.81;96227.44;5012484;28;20961;-51
2021/01/27 12:25:54;;;;;;;4.40;2.22;;;;;;;3.67;55.87;96225.38;5013398;28;20415;-51
2021/01/27 12:28:21;;;;;;;4.80;2.40;;;;;;;3.68;56.80;96221.81;5008653;28;20484;-54